Humphreys, Missouri
Current Conditions -  °F | °C
As of 4:55 AM on Monday 20 Oct 2014 (Local Time) from KIRK Reporting Station
Clear Clear  
Wind Chill: 54°   Ceiling: Unl
Heat Index: 54°   Visibility: 10mi
Dew Point: 49°   Wind: 9mph
Humidity: 83%   Direction: 280°W
Pressure: 29.95"   Gusts: NA
Location:  40.13°N, 93.32°W
Report Text: KIRK 200955Z AUTO 28008KT 10SM CLR 12/09 A2995 RMK AO2 SLP144 T01220094
Loading
Personal Weather Stations






























Interactive Weather Map
Tropical Storm Tracking
New forecast layout! Learn more

10-Day Weather Forecast

Advertisements
Track Severe Weather on mobile